sensor_id;sensor_type;location;lat;lon;timestamp;P1;durP1;ratioP1;P2;durP2;ratioP2
71204;SDS011;58935;54.498;18.544;2024-03-22T00:00:21;31.70;;;21.30;;
71204;SDS011;58935;54.498;18.544;2024-03-22T00:02:48;31.20;;;20.40;;
71204;SDS011;58935;54.498;18.544;2024-03-22T00:05:13;34.90;;;19.50;;
71204;SDS011;58935;54.498;18.544;2024-03-22T00:07:39;30.30;;;17.60;;
71204;SDS011;58935;54.498;18.544;2024-03-22T00:10:06;34.30;;;20.80;;
71204;SDS011;58935;54.498;18.544;2024-03-22T00:12:32;24.70;;;15.80;;
71204;SDS011;58935;54.498;18.544;2024-03-22T00:14:59;31.30;;;18.30;;
71204;SDS011;58935;54.498;18.544;2024-03-22T00:17:24;29.50;;;18.50;;
71204;SDS011;58935;54.498;18.544;2024-03-22T00:19:50;30.60;;;19.60;;
71204;SDS011;58935;54.498;18.544;2024-03-22T00:22:15;36.70;;;19.80;;
71204;SDS011;58935;54.498;18.544;2024-03-22T00:24:41;27.00;;;17.90;;
71204;SDS011;58935;54.498;18.544;2024-03-22T00:27:06;28.70;;;17.80;;
71204;SDS011;58935;54.498;18.544;2024-03-22T00:29:36;31.90;;;19.50;;
71204;SDS011;58935;54.498;18.544;2024-03-22T00:32:02;28.50;;;18.40;;
71204;SDS011;58935;54.498;18.544;2024-03-22T00:34:28;29.40;;;17.10;;
71204;SDS011;58935;54.498;18.544;2024-03-22T00:36:53;29.70;;;17.90;;
71204;SDS011;58935;54.498;18.544;2024-03-22T00:39:18;33.70;;;18.00;;
71204;SDS011;58935;54.498;18.544;2024-03-22T00:41:44;26.50;;;18.10;;
71204;SDS011;58935;54.498;18.544;2024-03-22T00:44:09;28.50;;;17.40;;
71204;SDS011;58935;54.498;18.544;2024-03-22T00:46:36;28.60;;;18.00;;
71204;SDS011;58935;54.498;18.544;2024-03-22T00:49:02;30.20;;;17.60;;
71204;SDS011;58935;54.498;18.544;2024-03-22T00:51:30;32.10;;;18.40;;
71204;SDS011;58935;54.498;18.544;2024-03-22T00:53:55;23.80;;;15.70;;
71204;SDS011;58935;54.498;18.544;2024-03-22T00:56:23;29.90;;;19.50;;
71204;SDS011;58935;54.498;18.544;2024-03-22T00:58:48;35.00;;;20.10;;
71204;SDS011;58935;54.498;18.544;2024-03-22T01:01:13;30.10;;;18.50;;
71204;SDS011;58935;54.498;18.544;2024-03-22T01:03:41;37.80;;;20.40;;
71204;SDS011;58935;54.498;18.544;2024-03-22T01:06:06;37.50;;;20.00;;
71204;SDS011;58935;54.498;18.544;2024-03-22T01:08:34;33.70;;;20.20;;
71204;SDS011;58935;54.498;18.544;2024-03-22T01:10:59;38.90;;;20.00;;
71204;SDS011;58935;54.498;18.544;2024-03-22T01:13:24;27.50;;;15.90;;
71204;SDS011;58935;54.498;18.544;2024-03-22T01:15:50;32.00;;;19.10;;
71204;SDS011;58935;54.498;18.544;2024-03-22T01:18:17;38.90;;;19.70;;
71204;SDS011;58935;54.498;18.544;2024-03-22T01:20:43;33.60;;;18.80;;
71204;SDS011;58935;54.498;18.544;2024-03-22T01:23:08;34.40;;;18.80;;
71204;SDS011;58935;54.498;18.544;2024-03-22T01:25:38;32.50;;;18.70;;
71204;SDS011;58935;54.498;18.544;2024-03-22T01:28:04;30.50;;;18.80;;
71204;SDS011;58935;54.498;18.544;2024-03-22T01:30:30;25.70;;;15.40;;
71204;SDS011;58935;54.498;18.544;2024-03-22T01:32:55;30.60;;;18.10;;
71204;SDS011;58935;54.498;18.544;2024-03-22T01:35:21;37.60;;;19.20;;
71204;SDS011;58935;54.498;18.544;2024-03-22T01:37:47;31.20;;;18.30;;
71204;SDS011;58935;54.498;18.544;2024-03-22T01:40:13;25.70;;;16.50;;
71204;SDS011;58935;54.498;18.544;2024-03-22T01:42:39;33.90;;;18.20;;
71204;SDS011;58935;54.498;18.544;2024-03-22T01:45:05;30.50;;;16.60;;
71204;SDS011;58935;54.498;18.544;2024-03-22T01:47:33;30.30;;;17.00;;
71204;SDS011;58935;54.498;18.544;2024-03-22T01:50:00;32.00;;;19.30;;
71204;SDS011;58935;54.498;18.544;2024-03-22T01:52:26;33.80;;;19.00;;
71204;SDS011;58935;54.498;18.544;2024-03-22T01:54:52;30.70;;;17.90;;
71204;SDS011;58935;54.498;18.544;2024-03-22T01:57:17;32.10;;;19.50;;
71204;SDS011;58935;54.498;18.544;2024-03-22T01:59:43;36.10;;;20.00;;
71204;SDS011;58935;54.498;18.544;2024-03-22T02:02:09;32.90;;;18.00;;
71204;SDS011;58935;54.498;18.544;2024-03-22T02:04:36;34.40;;;19.20;;
71204;SDS011;58935;54.498;18.544;2024-03-22T02:07:01;29.10;;;18.20;;
71204;SDS011;58935;54.498;18.544;2024-03-22T02:09:29;33.00;;;18.60;;
71204;SDS011;58935;54.498;18.544;2024-03-22T02:11:54;31.60;;;19.10;;
71204;SDS011;58935;54.498;18.544;2024-03-22T02:14:20;35.30;;;18.90;;
71204;SDS011;58935;54.498;18.544;2024-03-22T02:16:45;35.00;;;18.70;;
71204;SDS011;58935;54.498;18.544;2024-03-22T02:19:11;34.70;;;19.30;;
71204;SDS011;58935;54.498;18.544;2024-03-22T02:21:36;30.10;;;18.80;;
71204;SDS011;58935;54.498;18.544;2024-03-22T02:24:01;33.30;;;19.70;;
71204;SDS011;58935;54.498;18.544;2024-03-22T02:26:27;35.00;;;20.70;;
71204;SDS011;58935;54.498;18.544;2024-03-22T02:28:52;31.80;;;19.70;;
71204;SDS011;58935;54.498;18.544;2024-03-22T02:31:20;33.30;;;19.90;;
71204;SDS011;58935;54.498;18.544;2024-03-22T02:33:45;30.40;;;17.60;;
71204;SDS011;58935;54.498;18.544;2024-03-22T02:36:11;33.40;;;19.20;;
71204;SDS011;58935;54.498;18.544;2024-03-22T02:38:39;32.60;;;19.70;;
71204;SDS011;58935;54.498;18.544;2024-03-22T02:41:04;35.10;;;19.80;;
71204;SDS011;58935;54.498;18.544;2024-03-22T02:43:29;34.00;;;19.70;;
71204;SDS011;58935;54.498;18.544;2024-03-22T02:45:54;33.60;;;19.80;;
71204;SDS011;58935;54.498;18.544;2024-03-22T02:48:20;37.00;;;20.90;;
71204;SDS011;58935;54.498;18.544;2024-03-22T02:50:45;33.70;;;19.90;;
71204;SDS011;58935;54.498;18.544;2024-03-22T02:53:11;34.60;;;20.80;;
71204;SDS011;58935;54.498;18.544;2024-03-22T02:55:40;35.30;;;22.00;;
71204;SDS011;58935;54.498;18.544;2024-03-22T02:58:09;34.20;;;20.10;;
71204;SDS011;58935;54.498;18.544;2024-03-22T03:00:38;31.40;;;19.60;;
71204;SDS011;58935;54.498;18.544;2024-03-22T03:03:05;36.50;;;20.90;;
71204;SDS011;58935;54.498;18.544;2024-03-22T03:05:31;36.60;;;21.30;;
71204;SDS011;58935;54.498;18.544;2024-03-22T03:07:57;36.00;;;21.30;;
71204;SDS011;58935;54.498;18.544;2024-03-22T03:10:22;34.10;;;20.80;;
71204;SDS011;58935;54.498;18.544;2024-03-22T03:12:50;38.90;;;21.60;;
71204;SDS011;58935;54.498;18.544;2024-03-22T03:15:16;35.90;;;22.10;;
71204;SDS011;58935;54.498;18.544;2024-03-22T03:17:43;36.70;;;21.60;;
71204;SDS011;58935;54.498;18.544;2024-03-22T03:20:08;32.90;;;20.10;;
71204;SDS011;58935;54.498;18.544;2024-03-22T03:22:38;28.40;;;18.30;;
71204;SDS011;58935;54.498;18.544;2024-03-22T03:25:04;38.00;;;20.00;;
71204;SDS011;58935;54.498;18.544;2024-03-22T03:27:30;31.10;;;19.80;;
71204;SDS011;58935;54.498;18.544;2024-03-22T03:29:58;44.30;;;22.50;;
71204;SDS011;58935;54.498;18.544;2024-03-22T03:32:23;37.00;;;22.20;;
71204;SDS011;58935;54.498;18.544;2024-03-22T03:34:50;35.70;;;22.30;;
71204;SDS011;58935;54.498;18.544;2024-03-22T03:37:16;33.00;;;20.80;;
71204;SDS011;58935;54.498;18.544;2024-03-22T03:39:42;34.20;;;19.50;;
71204;SDS011;58935;54.498;18.544;2024-03-22T03:42:07;40.50;;;22.40;;
71204;SDS011;58935;54.498;18.544;2024-03-22T03:44:32;36.30;;;21.30;;
71204;SDS011;58935;54.498;18.544;2024-03-22T03:47:00;39.40;;;22.00;;
71204;SDS011;58935;54.498;18.544;2024-03-22T03:49:26;38.60;;;20.80;;
71204;SDS011;58935;54.498;18.544;2024-03-22T03:51:52;31.90;;;20.10;;
71204;SDS011;58935;54.498;18.544;2024-03-22T03:54:17;33.60;;;19.80;;
71204;SDS011;58935;54.498;18.544;2024-03-22T03:56:42;31.00;;;19.60;;
71204;SDS011;58935;54.498;18.544;2024-03-22T03:59:10;34.90;;;21.30;;
71204;SDS011;58935;54.498;18.544;2024-03-22T04:01:37;35.50;;;20.90;;
71204;SDS011;58935;54.498;18.544;2024-03-22T04:04:03;36.90;;;21.60;;
71204;SDS011;58935;54.498;18.544;2024-03-22T04:06:29;34.90;;;21.10;;
71204;SDS011;58935;54.498;18.544;2024-03-22T04:08:54;39.20;;;22.20;;
71204;SDS011;58935;54.498;18.544;2024-03-22T04:11:20;38.10;;;21.30;;
71204;SDS011;58935;54.498;18.544;2024-03-22T04:13:45;33.80;;;21.10;;
71204;SDS011;58935;54.498;18.544;2024-03-22T04:16:13;36.40;;;21.20;;
71204;SDS011;58935;54.498;18.544;2024-03-22T04:18:39;25.50;;;17.80;;
71204;SDS011;58935;54.498;18.544;2024-03-22T04:21:04;30.40;;;18.60;;
71204;SDS011;58935;54.498;18.544;2024-03-22T04:23:30;31.70;;;19.50;;
71204;SDS011;58935;54.498;18.544;2024-03-22T04:25:57;39.00;;;21.60;;
71204;SDS011;58935;54.498;18.544;2024-03-22T04:28:24;32.30;;;21.50;;
71204;SDS011;58935;54.498;18.544;2024-03-22T04:33:24;35.90;;;21.60;;
71204;SDS011;58935;54.498;18.544;2024-03-22T04:35:50;39.80;;;21.90;;
71204;SDS011;58935;54.498;18.544;2024-03-22T04:38:16;34.50;;;22.10;;
71204;SDS011;58935;54.498;18.544;2024-03-22T04:40:41;34.60;;;21.70;;
71204;SDS011;58935;54.498;18.544;2024-03-22T04:43:07;36.70;;;22.20;;
71204;SDS011;58935;54.498;18.544;2024-03-22T04:45:33;38.40;;;21.60;;
71204;SDS011;58935;54.498;18.544;2024-03-22T04:47:58;35.60;;;22.30;;
71204;SDS011;58935;54.498;18.544;2024-03-22T04:50:23;38.20;;;21.10;;
71204;SDS011;58935;54.498;18.544;2024-03-22T04:52:48;34.10;;;20.60;;
71204;SDS011;58935;54.498;18.544;2024-03-22T04:55:14;39.50;;;23.30;;
71204;SDS011;58935;54.498;18.544;2024-03-22T04:57:39;39.10;;;22.80;;
71204;SDS011;58935;54.498;18.544;2024-03-22T05:00:07;36.70;;;21.90;;
71204;SDS011;58935;54.498;18.544;2024-03-22T05:02:34;35.30;;;21.10;;
71204;SDS011;58935;54.498;18.544;2024-03-22T05:04:59;29.70;;;19.90;;
71204;SDS011;58935;54.498;18.544;2024-03-22T05:07:25;35.70;;;22.00;;
71204;SDS011;58935;54.498;18.544;2024-03-22T05:09:51;33.40;;;21.30;;
71204;SDS011;58935;54.498;18.544;2024-03-22T05:12:16;34.20;;;22.30;;
71204;SDS011;58935;54.498;18.544;2024-03-22T05:14:41;32.10;;;20.20;;
71204;SDS011;58935;54.498;18.544;2024-03-22T05:17:07;33.20;;;22.90;;
71204;SDS011;58935;54.498;18.544;2024-03-22T05:19:33;27.70;;;20.20;;
71204;SDS011;58935;54.498;18.544;2024-03-22T05:22:00;33.70;;;23.00;;
71204;SDS011;58935;54.498;18.544;2024-03-22T05:24:27;34.40;;;22.10;;
71204;SDS011;58935;54.498;18.544;2024-03-22T05:26:53;33.10;;;22.10;;
71204;SDS011;58935;54.498;18.544;2024-03-22T05:29:18;38.10;;;23.80;;
71204;SDS011;58935;54.498;18.544;2024-03-22T05:31:48;29.30;;;19.80;;
71204;SDS011;58935;54.498;18.544;2024-03-22T05:34:15;35.50;;;22.30;;
71204;SDS011;58935;54.498;18.544;2024-03-22T05:36:41;30.10;;;19.20;;
71204;SDS011;58935;54.498;18.544;2024-03-22T05:39:06;30.80;;;21.00;;
71204;SDS011;58935;54.498;18.544;2024-03-22T05:41:32;31.80;;;21.40;;
71204;SDS011;58935;54.498;18.544;2024-03-22T05:43:57;31.30;;;21.00;;
71204;SDS011;58935;54.498;18.544;2024-03-22T05:46:22;31.70;;;21.30;;
71204;SDS011;58935;54.498;18.544;2024-03-22T05:48:50;30.30;;;20.50;;
71204;SDS011;58935;54.498;18.544;2024-03-22T05:51:17;33.40;;;22.40;;
71204;SDS011;58935;54.498;18.544;2024-03-22T05:53:43;32.80;;;22.40;;
71204;SDS011;58935;54.498;18.544;2024-03-22T05:56:08;32.40;;;22.00;;
71204;SDS011;58935;54.498;18.544;2024-03-22T05:58:34;31.70;;;21.30;;
71204;SDS011;58935;54.498;18.544;2024-03-22T06:01:02;30.20;;;22.00;;
71204;SDS011;58935;54.498;18.544;2024-03-22T06:03:29;30.10;;;19.20;;
71204;SDS011;58935;54.498;18.544;2024-03-22T06:05:55;32.30;;;21.20;;
71204;SDS011;58935;54.498;18.544;2024-03-22T06:08:24;36.10;;;21.30;;
71204;SDS011;58935;54.498;18.544;2024-03-22T06:10:54;33.80;;;21.50;;
71204;SDS011;58935;54.498;18.544;2024-03-22T06:13:23;33.90;;;21.90;;
71204;SDS011;58935;54.498;18.544;2024-03-22T06:15:49;33.50;;;22.50;;
71204;SDS011;58935;54.498;18.544;2024-03-22T06:18:15;36.90;;;24.00;;
71204;SDS011;58935;54.498;18.544;2024-03-22T06:20:41;37.80;;;23.00;;
71204;SDS011;58935;54.498;18.544;2024-03-22T06:23:08;35.40;;;23.10;;
71204;SDS011;58935;54.498;18.544;2024-03-22T06:25:34;38.70;;;22.60;;
71204;SDS011;58935;54.498;18.544;2024-03-22T06:28:04;36.10;;;22.40;;
71204;SDS011;58935;54.498;18.544;2024-03-22T06:30:30;36.10;;;22.90;;
71204;SDS011;58935;54.498;18.544;2024-03-22T06:32:55;36.20;;;22.30;;
71204;SDS011;58935;54.498;18.544;2024-03-22T06:35:23;35.80;;;23.60;;
71204;SDS011;58935;54.498;18.544;2024-03-22T06:37:48;34.90;;;21.90;;
71204;SDS011;58935;54.498;18.544;2024-03-22T06:40:14;35.00;;;22.20;;
71204;SDS011;58935;54.498;18.544;2024-03-22T06:42:41;31.90;;;21.60;;
71204;SDS011;58935;54.498;18.544;2024-03-22T06:45:07;38.70;;;23.50;;
71204;SDS011;58935;54.498;18.544;2024-03-22T06:47:32;35.40;;;22.40;;
71204;SDS011;58935;54.498;18.544;2024-03-22T06:49:58;32.50;;;20.60;;
71204;SDS011;58935;54.498;18.544;2024-03-22T06:52:24;27.90;;;20.40;;
71204;SDS011;58935;54.498;18.544;2024-03-22T06:54:49;21.50;;;14.80;;
71204;SDS011;58935;54.498;18.544;2024-03-22T06:57:18;30.50;;;19.40;;
71204;SDS011;58935;54.498;18.544;2024-03-22T06:59:43;30.70;;;17.70;;
71204;SDS011;58935;54.498;18.544;2024-03-22T07:02:09;25.90;;;18.10;;
71204;SDS011;58935;54.498;18.544;2024-03-22T07:04:37;25.10;;;18.50;;
71204;SDS011;58935;54.498;18.544;2024-03-22T07:07:04;30.80;;;20.30;;
71204;SDS011;58935;54.498;18.544;2024-03-22T07:09:32;26.30;;;18.00;;
71204;SDS011;58935;54.498;18.544;2024-03-22T07:11:58;28.60;;;20.20;;
71204;SDS011;58935;54.498;18.544;2024-03-22T07:14:23;30.40;;;18.80;;
71204;SDS011;58935;54.498;18.544;2024-03-22T07:16:50;26.60;;;18.60;;
71204;SDS011;58935;54.498;18.544;2024-03-22T07:19:21;28.30;;;18.60;;
71204;SDS011;58935;54.498;18.544;2024-03-22T07:21:49;26.30;;;18.40;;
71204;SDS011;58935;54.498;18.544;2024-03-22T07:24:14;24.30;;;17.30;;
71204;SDS011;58935;54.498;18.544;2024-03-22T07:26:42;25.80;;;17.40;;
71204;SDS011;58935;54.498;18.544;2024-03-22T07:29:09;29.90;;;17.50;;
71204;SDS011;58935;54.498;18.544;2024-03-22T07:31:35;24.30;;;17.60;;
71204;SDS011;58935;54.498;18.544;2024-03-22T07:34:00;27.80;;;16.80;;
71204;SDS011;58935;54.498;18.544;2024-03-22T07:36:25;21.00;;;16.20;;
71204;SDS011;58935;54.498;18.544;2024-03-22T07:38:54;24.00;;;17.30;;
71204;SDS011;58935;54.498;18.544;2024-03-22T07:41:23;23.00;;;16.60;;
71204;SDS011;58935;54.498;18.544;2024-03-22T07:43:49;24.40;;;17.30;;
71204;SDS011;58935;54.498;18.544;2024-03-22T07:46:14;24.90;;;18.10;;
71204;SDS011;58935;54.498;18.544;2024-03-22T07:48:39;24.10;;;17.90;;
71204;SDS011;58935;54.498;18.544;2024-03-22T07:51:07;24.20;;;16.20;;
71204;SDS011;58935;54.498;18.544;2024-03-22T07:53:32;21.60;;;15.50;;
71204;SDS011;58935;54.498;18.544;2024-03-22T07:55:58;22.70;;;16.50;;
71204;SDS011;58935;54.498;18.544;2024-03-22T07:58:25;20.60;;;15.80;;
71204;SDS011;58935;54.498;18.544;2024-03-22T08:03:31;19.90;;;15.10;;
71204;SDS011;58935;54.498;18.544;2024-03-22T08:05:59;21.50;;;14.60;;
71204;SDS011;58935;54.498;18.544;2024-03-22T08:08:26;19.90;;;14.70;;
71204;SDS011;58935;54.498;18.544;2024-03-22T08:10:54;21.40;;;14.70;;
71204;SDS011;58935;54.498;18.544;2024-03-22T08:13:22;18.10;;;14.00;;
71204;SDS011;58935;54.498;18.544;2024-03-22T08:15:48;22.30;;;15.30;;
71204;SDS011;58935;54.498;18.544;2024-03-22T08:18:13;18.30;;;14.20;;
71204;SDS011;58935;54.498;18.544;2024-03-22T08:20:38;19.30;;;13.00;;
71204;SDS011;58935;54.498;18.544;2024-03-22T08:23:05;17.10;;;13.40;;
71204;SDS011;58935;54.498;18.544;2024-03-22T08:25:30;15.90;;;12.80;;
71204;SDS011;58935;54.498;18.544;2024-03-22T08:27:56;15.60;;;12.80;;
71204;SDS011;58935;54.498;18.544;2024-03-22T08:30:25;15.20;;;12.90;;
71204;SDS011;58935;54.498;18.544;2024-03-22T08:32:58;14.90;;;12.40;;
71204;SDS011;58935;54.498;18.544;2024-03-22T08:35:25;17.00;;;12.60;;
71204;SDS011;58935;54.498;18.544;2024-03-22T08:37:51;18.10;;;12.60;;
71204;SDS011;58935;54.498;18.544;2024-03-22T08:40:16;16.40;;;12.90;;
71204;SDS011;58935;54.498;18.544;2024-03-22T08:42:42;17.30;;;12.30;;
71204;SDS011;58935;54.498;18.544;2024-03-22T08:45:07;16.20;;;12.50;;
71204;SDS011;58935;54.498;18.544;2024-03-22T08:47:33;15.70;;;13.00;;
71204;SDS011;58935;54.498;18.544;2024-03-22T08:49:59;15.70;;;12.50;;
71204;SDS011;58935;54.498;18.544;2024-03-22T08:52:25;16.70;;;13.30;;
71204;SDS011;58935;54.498;18.544;2024-03-22T08:54:55;15.40;;;11.60;;
71204;SDS011;58935;54.498;18.544;2024-03-22T08:59:51;19.00;;;13.80;;
71204;SDS011;58935;54.498;18.544;2024-03-22T09:02:17;16.20;;;12.90;;
71204;SDS011;58935;54.498;18.544;2024-03-22T09:07:20;17.10;;;12.80;;
71204;SDS011;58935;54.498;18.544;2024-03-22T09:12:19;17.90;;;14.10;;
71204;SDS011;58935;54.498;18.544;2024-03-22T09:14:44;19.50;;;14.10;;
71204;SDS011;58935;54.498;18.544;2024-03-22T09:17:10;15.90;;;13.60;;
71204;SDS011;58935;54.498;18.544;2024-03-22T09:19:35;19.50;;;14.20;;
71204;SDS011;58935;54.498;18.544;2024-03-22T09:22:05;20.20;;;16.20;;
71204;SDS011;58935;54.498;18.544;2024-03-22T09:24:30;20.10;;;15.50;;
71204;SDS011;58935;54.498;18.544;2024-03-22T09:26:56;19.10;;;15.40;;
71204;SDS011;58935;54.498;18.544;2024-03-22T09:29:21;21.60;;;15.90;;
71204;SDS011;58935;54.498;18.544;2024-03-22T09:31:47;20.70;;;15.80;;
71204;SDS011;58935;54.498;18.544;2024-03-22T09:34:12;22.40;;;16.80;;
71204;SDS011;58935;54.498;18.544;2024-03-22T09:36:37;23.50;;;16.40;;
71204;SDS011;58935;54.498;18.544;2024-03-22T09:39:04;18.30;;;16.00;;
71204;SDS011;58935;54.498;18.544;2024-03-22T09:41:32;22.00;;;17.10;;
71204;SDS011;58935;54.498;18.544;2024-03-22T09:44:03;25.90;;;17.50;;
71204;SDS011;58935;54.498;18.544;2024-03-22T09:46:30;20.50;;;17.30;;
71204;SDS011;58935;54.498;18.544;2024-03-22T09:48:57;26.10;;;20.60;;
71204;SDS011;58935;54.498;18.544;2024-03-22T09:51:24;22.00;;;17.00;;
71204;SDS011;58935;54.498;18.544;2024-03-22T09:53:51;22.20;;;17.80;;
71204;SDS011;58935;54.498;18.544;2024-03-22T09:56:21;23.20;;;18.90;;
71204;SDS011;58935;54.498;18.544;2024-03-22T09:58:47;22.40;;;17.60;;
71204;SDS011;58935;54.498;18.544;2024-03-22T10:01:13;23.00;;;18.20;;
71204;SDS011;58935;54.498;18.544;2024-03-22T10:03:39;27.30;;;18.50;;
71204;SDS011;58935;54.498;18.544;2024-03-22T10:06:04;23.60;;;18.70;;
71204;SDS011;58935;54.498;18.544;2024-03-22T10:08:30;38.20;;;19.80;;
71204;SDS011;58935;54.498;18.544;2024-03-22T10:10:56;21.50;;;17.20;;
71204;SDS011;58935;54.498;18.544;2024-03-22T10:13:21;27.90;;;19.90;;
71204;SDS011;58935;54.498;18.544;2024-03-22T10:15:47;24.70;;;19.10;;
71204;SDS011;58935;54.498;18.544;2024-03-22T10:18:12;22.00;;;18.10;;
71204;SDS011;58935;54.498;18.544;2024-03-22T10:20:39;25.70;;;19.60;;
71204;SDS011;58935;54.498;18.544;2024-03-22T10:23:07;24.30;;;19.00;;
71204;SDS011;58935;54.498;18.544;2024-03-22T10:25:36;25.20;;;18.90;;
71204;SDS011;58935;54.498;18.544;2024-03-22T10:28:01;24.00;;;18.00;;
71204;SDS011;58935;54.498;18.544;2024-03-22T10:30:27;24.80;;;18.10;;
71204;SDS011;58935;54.498;18.544;2024-03-22T10:32:53;32.00;;;18.30;;
71204;SDS011;58935;54.498;18.544;2024-03-22T10:35:18;23.90;;;16.80;;
71204;SDS011;58935;54.498;18.544;2024-03-22T10:37:49;20.80;;;16.20;;
71204;SDS011;58935;54.498;18.544;2024-03-22T10:40:16;24.00;;;17.60;;
71204;SDS011;58935;54.498;18.544;2024-03-22T10:42:42;24.30;;;19.00;;
71204;SDS011;58935;54.498;18.544;2024-03-22T10:45:10;26.20;;;19.20;;
71204;SDS011;58935;54.498;18.544;2024-03-22T10:47:39;24.50;;;18.20;;
71204;SDS011;58935;54.498;18.544;2024-03-22T10:50:07;22.90;;;18.20;;
71204;SDS011;58935;54.498;18.544;2024-03-22T10:52:45;22.60;;;18.90;;
71204;SDS011;58935;54.498;18.544;2024-03-22T10:55:27;25.20;;;18.50;;
71204;SDS011;58935;54.498;18.544;2024-03-22T10:57:56;23.70;;;18.10;;
71204;SDS011;58935;54.498;18.544;2024-03-22T11:00:28;25.20;;;18.90;;
71204;SDS011;58935;54.498;18.544;2024-03-22T11:02:55;25.80;;;19.20;;
71204;SDS011;58935;54.498;18.544;2024-03-22T11:05:22;24.90;;;18.10;;
71204;SDS011;58935;54.498;18.544;2024-03-22T11:07:47;28.80;;;18.30;;
71204;SDS011;58935;54.498;18.544;2024-03-22T11:10:28;25.90;;;18.90;;
71204;SDS011;58935;54.498;18.544;2024-03-22T11:12:55;24.00;;;18.70;;
71204;SDS011;58935;54.498;18.544;2024-03-22T11:15:22;21.80;;;18.10;;
71204;SDS011;58935;54.498;18.544;2024-03-22T11:17:47;24.60;;;19.10;;
71204;SDS011;58935;54.498;18.544;2024-03-22T11:20:14;25.50;;;18.40;;
71204;SDS011;58935;54.498;18.544;2024-03-22T11:22:41;26.20;;;18.60;;
71204;SDS011;58935;54.498;18.544;2024-03-22T11:25:06;23.80;;;19.10;;
71204;SDS011;58935;54.498;18.544;2024-03-22T11:27:34;23.30;;;18.20;;
71204;SDS011;58935;54.498;18.544;2024-03-22T11:29:59;27.40;;;18.00;;
71204;SDS011;58935;54.498;18.544;2024-03-22T11:32:25;25.90;;;19.40;;
71204;SDS011;58935;54.498;18.544;2024-03-22T11:34:51;23.80;;;17.90;;
71204;SDS011;58935;54.498;18.544;2024-03-22T11:37:16;26.90;;;18.70;;
71204;SDS011;58935;54.498;18.544;2024-03-22T11:39:44;24.80;;;18.20;;
71204;SDS011;58935;54.498;18.544;2024-03-22T11:42:09;31.20;;;18.60;;
71204;SDS011;58935;54.498;18.544;2024-03-22T11:44:37;22.40;;;17.70;;
71204;SDS011;58935;54.498;18.544;2024-03-22T11:47:04;20.50;;;15.70;;
71204;SDS011;58935;54.498;18.544;2024-03-22T11:49:30;24.40;;;18.50;;
71204;SDS011;58935;54.498;18.544;2024-03-22T11:51:56;26.70;;;19.00;;
71204;SDS011;58935;54.498;18.544;2024-03-22T11:54:22;26.60;;;19.20;;
71204;SDS011;58935;54.498;18.544;2024-03-22T11:56:51;26.20;;;17.70;;
71204;SDS011;58935;54.498;18.544;2024-03-22T11:59:20;22.40;;;17.10;;
71204;SDS011;58935;54.498;18.544;2024-03-22T12:01:47;21.00;;;17.00;;
71204;SDS011;58935;54.498;18.544;2024-03-22T12:04:12;24.20;;;17.40;;
71204;SDS011;58935;54.498;18.544;2024-03-22T12:06:43;22.50;;;17.90;;
71204;SDS011;58935;54.498;18.544;2024-03-22T12:09:09;26.80;;;17.00;;
71204;SDS011;58935;54.498;18.544;2024-03-22T12:11:37;21.10;;;15.20;;
71204;SDS011;58935;54.498;18.544;2024-03-22T12:14:03;21.10;;;16.00;;
71204;SDS011;58935;54.498;18.544;2024-03-22T12:16:28;25.50;;;16.50;;
71204;SDS011;58935;54.498;18.544;2024-03-22T12:18:53;21.20;;;16.40;;
71204;SDS011;58935;54.498;18.544;2024-03-22T12:21:19;24.80;;;17.10;;
71204;SDS011;58935;54.498;18.544;2024-03-22T12:23:44;20.40;;;15.30;;
71204;SDS011;58935;54.498;18.544;2024-03-22T12:26:09;27.10;;;16.80;;
71204;SDS011;58935;54.498;18.544;2024-03-22T12:28:37;24.40;;;15.60;;
71204;SDS011;58935;54.498;18.544;2024-03-22T12:31:04;20.10;;;14.60;;
71204;SDS011;58935;54.498;18.544;2024-03-22T12:33:29;21.00;;;15.60;;
71204;SDS011;58935;54.498;18.544;2024-03-22T12:35:55;24.10;;;16.80;;
71204;SDS011;58935;54.498;18.544;2024-03-22T12:38:20;21.00;;;14.50;;
71204;SDS011;58935;54.498;18.544;2024-03-22T12:40:46;20.20;;;14.30;;
71204;SDS011;58935;54.498;18.544;2024-03-22T12:43:11;20.70;;;15.00;;
71204;SDS011;58935;54.498;18.544;2024-03-22T12:45:37;25.50;;;14.70;;
71204;SDS011;58935;54.498;18.544;2024-03-22T12:48:04;17.10;;;13.00;;
71204;SDS011;58935;54.498;18.544;2024-03-22T12:50:30;20.50;;;13.40;;
71204;SDS011;58935;54.498;18.544;2024-03-22T12:52:55;16.70;;;13.10;;
71204;SDS011;58935;54.498;18.544;2024-03-22T12:55:21;17.10;;;13.30;;
71204;SDS011;58935;54.498;18.544;2024-03-22T12:57:47;16.90;;;13.20;;
71204;SDS011;58935;54.498;18.544;2024-03-22T13:00:13;16.50;;;12.80;;
71204;SDS011;58935;54.498;18.544;2024-03-22T13:02:40;15.00;;;12.00;;
71204;SDS011;58935;54.498;18.544;2024-03-22T13:05:06;17.30;;;12.20;;
71204;SDS011;58935;54.498;18.544;2024-03-22T13:07:32;16.40;;;11.90;;
71204;SDS011;58935;54.498;18.544;2024-03-22T13:09:57;15.30;;;12.20;;
71204;SDS011;58935;54.498;18.544;2024-03-22T13:12:25;16.10;;;11.70;;
71204;SDS011;58935;54.498;18.544;2024-03-22T13:14:54;16.00;;;12.30;;
71204;SDS011;58935;54.498;18.544;2024-03-22T13:17:20;15.70;;;11.90;;
71204;SDS011;58935;54.498;18.544;2024-03-22T13:19:46;18.90;;;12.60;;
71204;SDS011;58935;54.498;18.544;2024-03-22T13:22:11;21.20;;;12.40;;
71204;SDS011;58935;54.498;18.544;2024-03-22T13:24:37;18.40;;;13.00;;
71204;SDS011;58935;54.498;18.544;2024-03-22T13:27:03;21.10;;;13.30;;
71204;SDS011;58935;54.498;18.544;2024-03-22T13:29:29;21.10;;;14.80;;
71204;SDS011;58935;54.498;18.544;2024-03-22T13:31:54;17.50;;;13.10;;
71204;SDS011;58935;54.498;18.544;2024-03-22T13:34:22;20.40;;;13.90;;
71204;SDS011;58935;54.498;18.544;2024-03-22T13:36:47;16.60;;;13.40;;
71204;SDS011;58935;54.498;18.544;2024-03-22T13:39:13;18.30;;;13.00;;
71204;SDS011;58935;54.498;18.544;2024-03-22T13:41:41;18.80;;;12.40;;
71204;SDS011;58935;54.498;18.544;2024-03-22T13:44:07;16.70;;;13.20;;
71204;SDS011;58935;54.498;18.544;2024-03-22T13:46:33;14.70;;;12.20;;
71204;SDS011;58935;54.498;18.544;2024-03-22T13:49:03;16.00;;;12.40;;
71204;SDS011;58935;54.498;18.544;2024-03-22T13:51:29;20.60;;;13.60;;
71204;SDS011;58935;54.498;18.544;2024-03-22T13:53:56;18.50;;;13.00;;
71204;SDS011;58935;54.498;18.544;2024-03-22T13:56:22;18.20;;;13.10;;
71204;SDS011;58935;54.498;18.544;2024-03-22T13:58:47;18.40;;;13.20;;
71204;SDS011;58935;54.498;18.544;2024-03-22T14:01:14;21.20;;;13.80;;
71204;SDS011;58935;54.498;18.544;2024-03-22T14:03:40;19.80;;;13.80;;
71204;SDS011;58935;54.498;18.544;2024-03-22T14:06:05;21.40;;;14.90;;
71204;SDS011;58935;54.498;18.544;2024-03-22T14:08:32;24.40;;;14.70;;
71204;SDS011;58935;54.498;18.544;2024-03-22T14:10:59;16.00;;;13.00;;
71204;SDS011;58935;54.498;18.544;2024-03-22T14:13:25;16.60;;;12.90;;
71204;SDS011;58935;54.498;18.544;2024-03-22T14:15:50;18.50;;;14.90;;